Vealmoor, Texas
Current Conditions -  °F | °C
As of 6:55 PM on Tuesday 21 Oct 2014 (Local Time) from KBPG Reporting Station
Broken Clouds Broken Clouds  
Wind Chill: 74°   Ceiling: 7000
Heat Index: 74°   Visibility: 10mi
Dew Point: 55°   Wind: 5mph
Humidity: 52%   Direction: 130°SE
Pressure: 30.06"   Gusts: NA
Location:  32.2854°N, 101.449°W
Report Text: KBPG 212355Z AUTO 13004KT 10SM BKN070 23/13 A3006 RMK AO2 T02330128 10261 20233
Loading
Personal Weather Stations






























Interactive Weather Map
Tropical Storm Tracking
New forecast layout! Learn more

10-Day Weather Forecast

Advertisements
Track Severe Weather on mobile